createdAt,value
2022-10-29T00:01:56.000Z,13.29
2022-10-29T00:05:01.217Z,13.20
2022-10-29T00:08:06.679Z,13.14
2022-10-29T00:11:15.985Z,13.07
2022-10-29T00:14:21.408Z,12.98
2022-10-29T00:17:26.776Z,12.96
2022-10-29T00:20:32.105Z,13.08
2022-10-29T00:23:37.832Z,13.02
2022-10-29T00:26:42.726Z,13.13
2022-10-29T00:29:48.099Z,12.94
2022-10-29T00:32:53.799Z,12.35
2022-10-29T00:36:15.493Z,12.63
2022-10-29T00:39:21.095Z,12.75
2022-10-29T00:42:26.502Z,12.80
2022-10-29T00:45:32.572Z,12.80
2022-10-29T00:48:45.715Z,12.61
2022-10-29T00:51:52.758Z,12.67
2022-10-29T00:55:02.900Z,12.59
2022-10-29T00:58:12.235Z,12.65
2022-10-29T01:01:18.139Z,12.57
2022-10-29T01:04:25.974Z,12.45
2022-10-29T01:07:31.904Z,12.35
2022-10-29T01:11:04.357Z,12.31
2022-10-29T01:14:12.519Z,12.21
2022-10-29T01:17:32.943Z,12.43
2022-10-29T01:20:58.814Z,12.42
2022-10-29T01:24:22.133Z,12.30
2022-10-29T01:27:36.476Z,12.47
2022-10-29T01:31:20.029Z,12.59
2022-10-29T01:34:53.338Z,12.32
2022-10-29T01:38:27.622Z,11.85
2022-10-29T01:41:56.886Z,11.96
2022-10-29T01:45:22.760Z,12.22
2022-10-29T01:48:34.650Z,12.11
2022-10-29T01:51:43.474Z,12.06
2022-10-29T01:54:49.847Z,12.11
2022-10-29T01:57:55.614Z,12.02
2022-10-29T02:01:12.852Z,12.12
2022-10-29T02:04:25.115Z,12.13
2022-10-29T02:07:54.848Z,12.31
2022-10-29T02:11:08.953Z,12.20
2022-10-29T02:14:33.663Z,12.17
2022-10-29T02:17:39.495Z,12.03
2022-10-29T02:20:46.816Z,11.99
2022-10-29T02:23:52.763Z,12.10
2022-10-29T02:26:58.419Z,12.04
2022-10-29T02:30:05.643Z,12.20
2022-10-29T02:33:11.048Z,12.25
2022-10-29T02:36:16.674Z,12.04
2022-10-29T02:39:22.200Z,12.12
2022-10-29T02:42:27.659Z,12.11
2022-10-29T02:45:33.201Z,11.56
2022-10-29T02:48:38.785Z,11.42
2022-10-29T02:51:43.945Z,11.29
2022-10-29T02:54:49.355Z,11.16
2022-10-29T02:57:55.004Z,11.56
2022-10-29T03:01:01.745Z,11.72
2022-10-29T03:04:07.122Z,11.85
2022-10-29T03:07:12.496Z,11.89
2022-10-29T03:10:18.148Z,11.90
2022-10-29T03:13:23.243Z,11.91
2022-10-29T03:16:28.475Z,11.97
2022-10-29T03:19:33.720Z,11.97
2022-10-29T03:22:39.409Z,11.86
2022-10-29T03:25:55.619Z,11.90
2022-10-29T03:29:01.631Z,11.83
2022-10-29T03:32:06.833Z,11.75
2022-10-29T03:35:14.962Z,11.86
2022-10-29T03:38:20.178Z,11.82
2022-10-29T03:41:25.608Z,11.81
2022-10-29T03:44:32.420Z,11.72
2022-10-29T03:47:38.186Z,11.80
2022-10-29T03:50:43.592Z,11.82
2022-10-29T03:53:49.254Z,11.83
2022-10-29T03:56:54.663Z,11.80
2022-10-29T04:00:01.408Z,11.72
2022-10-29T04:03:06.788Z,11.82
2022-10-29T04:06:14.920Z,11.83
2022-10-29T04:09:20.557Z,11.83
2022-10-29T04:12:26.174Z,11.80
2022-10-29T04:15:32.564Z,11.76
2022-10-29T04:18:37.690Z,11.85
2022-10-29T04:28:42.990Z,11.53
2022-10-29T04:31:49.050Z,11.51
2022-10-29T04:34:54.309Z,11.52
2022-10-29T04:37:59.749Z,11.56
2022-10-29T04:41:05.730Z,11.65
2022-10-29T04:44:11.106Z,11.74
2022-10-29T04:47:16.315Z,11.65
2022-10-29T04:50:21.789Z,11.58
2022-10-29T04:53:27.944Z,11.56
2022-10-29T04:56:33.445Z,11.55
2022-10-29T04:59:38.934Z,11.59
2022-10-29T05:02:49.625Z,11.46
2022-10-29T05:05:54.996Z,11.38
2022-10-29T05:09:00.319Z,11.33
2022-10-29T05:12:07.275Z,11.52
2022-10-29T05:15:12.631Z,11.51
2022-10-29T05:18:18.540Z,11.18
2022-10-29T05:21:23.900Z,11.28
2022-10-29T05:24:29.673Z,11.35
2022-10-29T05:27:35.049Z,11.28
2022-10-29T05:30:42.146Z,11.28
2022-10-29T05:33:49.923Z,11.25
2022-10-29T05:36:58.539Z,11.39
2022-10-29T05:40:03.932Z,11.47
2022-10-29T05:43:09.087Z,11.48
2022-10-29T05:46:14.781Z,11.28
2022-10-29T05:49:20.324Z,11.35
2022-10-29T05:52:25.972Z,11.42
2022-10-29T05:55:34.197Z,11.34
2022-10-29T05:58:40.147Z,11.38
2022-10-29T06:01:45.921Z,11.39
2022-10-29T06:04:51.850Z,11.35
2022-10-29T06:07:59.179Z,11.27
2022-10-29T06:11:05.633Z,11.31
2022-10-29T06:14:10.872Z,11.38
2022-10-29T06:17:16.210Z,11.45
2022-10-29T06:20:22.260Z,11.50
2022-10-29T06:23:28.862Z,11.41
2022-10-29T06:26:34.298Z,11.38
2022-10-29T06:29:40.021Z,11.42
2022-10-29T06:32:47.690Z,11.55
2022-10-29T06:35:53.563Z,11.46
2022-10-29T06:38:59.372Z,11.67
2022-10-29T06:42:13.723Z,11.68
2022-10-29T06:45:19.093Z,11.85
2022-10-29T06:48:24.372Z,11.82
2022-10-29T06:51:29.924Z,11.95
2022-10-29T06:54:36.020Z,11.89
2022-10-29T06:57:42.444Z,11.91
2022-10-29T07:00:49.364Z,12.10
2022-10-29T07:03:55.137Z,12.22
2022-10-29T07:07:00.215Z,12.30
2022-10-29T07:10:06.148Z,12.36
2022-10-29T07:13:11.653Z,12.37
2022-10-29T07:16:17.024Z,12.43
2022-10-29T07:19:22.921Z,12.51
2022-10-29T07:22:33.943Z,12.66
2022-10-29T07:25:41.374Z,12.86
2022-10-29T07:28:46.527Z,12.90
2022-10-29T07:31:51.897Z,13.03
2022-10-29T07:34:57.601Z,13.17
2022-10-29T07:38:10.454Z,13.23
2022-10-29T07:41:17.100Z,13.34
2022-10-29T07:44:23.069Z,13.44
2022-10-29T07:47:28.746Z,13.45
2022-10-29T07:50:34.897Z,13.67
2022-10-29T07:53:40.896Z,13.74
2022-10-29T07:56:47.837Z,13.88
2022-10-29T07:59:53.992Z,13.95
2022-10-29T08:02:59.866Z,13.97
2022-10-29T08:06:05.783Z,14.21
2022-10-29T08:09:12.614Z,14.24
2022-10-29T08:12:18.225Z,14.39
2022-10-29T08:15:24.963Z,14.55
2022-10-29T08:18:30.565Z,14.73
2022-10-29T08:21:36.189Z,14.84
2022-10-29T08:24:41.721Z,14.95
2022-10-29T08:28:02.451Z,15.03
2022-10-29T08:31:08.091Z,15.15
2022-10-29T08:34:13.261Z,15.30
2022-10-29T08:37:18.996Z,15.33
2022-10-29T08:40:59.370Z,15.43
2022-10-29T08:44:27.578Z,15.58
2022-10-29T08:47:59.111Z,15.56
2022-10-29T08:51:07.457Z,15.64
2022-10-29T08:54:32.272Z,15.74
2022-10-29T08:57:43.806Z,15.92
2022-10-29T09:00:53.359Z,15.98
2022-10-29T09:03:59.492Z,16.16
2022-10-29T09:07:25.957Z,16.19
2022-10-29T09:10:41.724Z,16.20
2022-10-29T09:14:13.451Z,16.18
2022-10-29T09:17:31.311Z,16.45
2022-10-29T09:20:48.562Z,16.49
2022-10-29T09:24:20.597Z,16.58
2022-10-29T09:28:00.584Z,16.61
2022-10-29T09:31:28.877Z,16.79
2022-10-29T09:34:53.279Z,16.82
2022-10-29T09:38:09.185Z,16.88
2022-10-29T09:41:15.841Z,17.12
2022-10-29T09:44:24.155Z,17.32
2022-10-29T09:47:58.226Z,17.41
2022-10-29T09:51:06.779Z,17.48
2022-10-29T09:54:13.524Z,17.53
2022-10-29T09:57:25.618Z,17.54
2022-10-29T10:00:33.940Z,17.63
2022-10-29T10:03:46.142Z,17.77
2022-10-29T10:07:11.780Z,17.96
2022-10-29T10:10:24.135Z,18.02
2022-10-29T10:13:32.936Z,18.08
2022-10-29T10:16:38.573Z,18.14
2022-10-29T10:19:49.298Z,18.27
2022-10-29T10:22:54.872Z,18.50
2022-10-29T10:26:04.016Z,18.54
2022-10-29T10:29:25.583Z,18.62
2022-10-29T10:32:32.428Z,18.70
2022-10-29T10:35:39.101Z,18.75
2022-10-29T10:38:53.418Z,18.90
2022-10-29T10:42:02.848Z,19.20
2022-10-29T10:45:36.288Z,19.14
2022-10-29T10:48:42.577Z,19.19
2022-10-29T10:51:56.508Z,19.40
2022-10-29T10:55:26.402Z,19.49
2022-10-29T10:58:36.013Z,19.51
2022-10-29T11:01:49.030Z,19.61
2022-10-29T11:05:12.450Z,19.79
2022-10-29T11:08:32.823Z,19.85
2022-10-29T11:11:42.681Z,19.91
2022-10-29T11:15:16.255Z,20.12
2022-10-29T11:18:32.063Z,20.22
2022-10-29T11:21:48.814Z,20.45
2022-10-29T11:25:22.377Z,20.50
2022-10-29T11:28:39.046Z,20.49
2022-10-29T11:31:57.895Z,20.78
2022-10-29T11:35:10.168Z,20.79
2022-10-29T11:38:25.827Z,20.81
2022-10-29T11:41:40.263Z,21.18
2022-10-29T11:44:45.700Z,21.19
2022-10-29T11:48:07.099Z,21.20
2022-10-29T11:51:29.178Z,21.12
2022-10-29T11:54:57.556Z,21.15
2022-10-29T11:58:18.944Z,21.07
2022-10-29T12:01:50.080Z,21.14
2022-10-29T12:05:02.084Z,21.18
2022-10-29T12:08:13.453Z,21.44
2022-10-29T12:11:25.691Z,21.43
2022-10-29T12:14:47.023Z,21.30
2022-10-29T12:18:15.827Z,21.40
2022-10-29T12:21:26.735Z,21.54
2022-10-29T12:24:54.035Z,21.74
2022-10-29T12:28:19.882Z,21.74
2022-10-29T12:31:38.375Z,22.03
2022-10-29T12:34:53.584Z,21.99
2022-10-29T12:38:20.050Z,22.19
2022-10-29T12:41:43.917Z,22.09
2022-10-29T12:45:13.334Z,22.01
2022-10-29T12:48:33.625Z,22.07
2022-10-29T12:55:12.946Z,22.10
2022-10-29T12:58:43.964Z,22.25
2022-10-29T13:02:10.642Z,22.40
2022-10-29T13:05:19.187Z,22.41
2022-10-29T13:08:34.519Z,22.40
2022-10-29T13:11:50.657Z,22.46
2022-10-29T13:15:05.364Z,22.49
2022-10-29T13:18:41.652Z,22.45
2022-10-29T13:22:03.447Z,22.60
2022-10-29T13:25:43.406Z,22.48
2022-10-29T13:28:51.603Z,22.61
2022-10-29T13:32:04.742Z,22.65
2022-10-29T13:35:19.431Z,22.72
2022-10-29T13:39:04.838Z,22.67
2022-10-29T13:42:13.364Z,22.62
2022-10-29T13:45:20.450Z,22.76
2022-10-29T13:48:31.831Z,22.83
2022-10-29T13:51:44.615Z,22.69
2022-10-29T13:54:54.498Z,22.58
2022-10-29T13:58:16.110Z,22.76
2022-10-29T14:01:23.137Z,22.64
2022-10-29T14:04:38.108Z,22.51
2022-10-29T14:08:06.997Z,22.50
2022-10-29T14:11:25.576Z,22.43
2022-10-29T14:14:37.278Z,22.43
2022-10-29T14:17:42.462Z,22.34
2022-10-29T14:20:55.955Z,22.34
2022-10-29T14:24:04.567Z,22.30
2022-10-29T14:27:15.450Z,22.31
2022-10-29T14:30:20.745Z,22.16
2022-10-29T14:33:32.222Z,22.22
2022-10-29T14:36:51.195Z,22.19
2022-10-29T14:40:00.355Z,22.21
2022-10-29T14:43:06.076Z,22.19
2022-10-29T14:46:17.173Z,22.21
2022-10-29T14:49:25.445Z,22.12
2022-10-29T14:52:38.837Z,22.17
2022-10-29T14:55:48.376Z,22.04
2022-10-29T14:58:53.628Z,21.89
2022-10-29T15:02:17.305Z,21.97
2022-10-29T15:05:28.808Z,21.78
2022-10-29T15:08:39.771Z,21.71
2022-10-29T15:12:03.985Z,21.59
2022-10-29T15:15:25.375Z,21.60
2022-10-29T15:18:32.012Z,21.51
2022-10-29T15:21:40.346Z,21.43
2022-10-29T15:27:53.560Z,21.22
2022-10-29T15:31:04.051Z,21.03
2022-10-29T15:34:14.337Z,20.96
2022-10-29T15:37:19.393Z,20.87
2022-10-29T15:40:26.398Z,20.81
2022-10-29T15:43:32.550Z,20.69
2022-10-29T15:46:50.274Z,20.56
2022-10-29T15:49:55.891Z,20.41
2022-10-29T15:53:06.055Z,20.31
2022-10-29T15:56:15.117Z,20.23
2022-10-29T15:59:25.170Z,20.05
2022-10-29T16:02:30.900Z,19.82
2022-10-29T16:05:38.008Z,19.64
2022-10-29T16:08:50.415Z,19.62
2022-10-29T16:11:55.690Z,19.60
2022-10-29T16:15:01.160Z,19.47
2022-10-29T16:18:06.465Z,19.37
2022-10-29T16:21:24.428Z,19.21
2022-10-29T16:24:29.972Z,19.11
2022-10-29T16:27:35.082Z,19.04
2022-10-29T16:33:53.441Z,18.95
2022-10-29T16:36:58.785Z,18.85
2022-10-29T16:40:04.634Z,18.81
2022-10-29T16:43:10.280Z,18.75
2022-10-29T16:46:16.367Z,18.72
2022-10-29T16:49:22.095Z,18.54
2022-10-29T16:52:29.841Z,18.45
2022-10-29T16:55:38.020Z,18.33
2022-10-29T16:58:43.805Z,18.27
2022-10-29T17:01:49.121Z,18.26
2022-10-29T17:04:54.719Z,18.15
2022-10-29T17:08:00.071Z,18.16
2022-10-29T17:11:10.351Z,18.13
2022-10-29T17:14:15.821Z,18.10
2022-10-29T17:17:21.596Z,18.03
2022-10-29T17:20:27.038Z,17.93
2022-10-29T17:23:33.402Z,17.85
2022-10-29T17:26:38.983Z,17.81
2022-10-29T17:29:44.463Z,17.76
2022-10-29T17:32:51.500Z,17.73
2022-10-29T17:36:10.849Z,17.68
2022-10-29T17:39:16.261Z,17.65
2022-10-29T17:42:21.720Z,17.64
2022-10-29T17:45:27.193Z,17.44
2022-10-29T17:48:32.417Z,17.46
2022-10-29T17:51:37.874Z,17.36
2022-10-29T17:54:43.679Z,17.29
2022-10-29T17:57:48.817Z,17.22
2022-10-29T18:00:54.174Z,17.20
2022-10-29T18:04:04.705Z,17.19
2022-10-29T18:07:10.511Z,17.14
2022-10-29T18:10:17.545Z,17.18
2022-10-29T18:13:23.510Z,17.18
2022-10-29T18:16:30.433Z,17.13
2022-10-29T18:19:35.754Z,16.99
2022-10-29T18:22:41.160Z,17.00
2022-10-29T18:26:02.790Z,16.95
2022-10-29T18:29:11.912Z,16.95
2022-10-29T18:32:17.434Z,16.83
2022-10-29T18:35:23.066Z,16.78
2022-10-29T18:38:30.803Z,16.79
2022-10-29T18:41:36.785Z,16.70
2022-10-29T18:44:42.128Z,16.57
2022-10-29T18:47:47.557Z,16.55
2022-10-29T18:50:53.983Z,16.46
2022-10-29T18:54:00.143Z,16.40
2022-10-29T18:57:06.459Z,16.25
2022-10-29T19:00:12.763Z,16.23
2022-10-29T19:03:18.168Z,16.23
2022-10-29T19:06:26.792Z,16.15
2022-10-29T19:09:32.542Z,16.16
2022-10-29T19:12:37.971Z,16.20
2022-10-29T19:15:43.799Z,16.23
2022-10-29T19:18:58.366Z,16.17
2022-10-29T19:22:03.950Z,16.16
2022-10-29T19:25:09.183Z,16.14
2022-10-29T19:28:14.682Z,16.12
2022-10-29T19:31:23.018Z,16.11
2022-10-29T19:34:28.476Z,16.12
2022-10-29T19:37:34.126Z,16.03
2022-10-29T19:40:39.304Z,15.92
2022-10-29T19:43:45.024Z,15.91
2022-10-29T19:46:51.149Z,15.92
2022-10-29T19:49:56.802Z,15.85
2022-10-29T19:53:02.903Z,15.65
2022-10-29T19:56:11.612Z,15.76
2022-10-29T19:59:16.864Z,15.78
2022-10-29T20:02:22.520Z,15.68
2022-10-29T20:05:27.952Z,15.63
2022-10-29T20:08:34.281Z,15.65
2022-10-29T20:11:40.264Z,15.61
2022-10-29T20:14:46.283Z,15.58
2022-10-29T20:17:52.429Z,15.50
2022-10-29T20:20:58.325Z,15.42
2022-10-29T20:24:04.698Z,15.30
2022-10-29T20:27:10.626Z,15.36
2022-10-29T20:30:16.719Z,15.25
2022-10-29T20:33:22.281Z,15.06
2022-10-29T20:36:30.948Z,14.94
2022-10-29T20:39:37.193Z,14.97
2022-10-29T20:42:43.324Z,14.93
2022-10-29T20:45:49.328Z,14.88
2022-10-29T20:48:54.738Z,14.90
2022-10-29T20:52:00.276Z,14.87
2022-10-29T20:55:07.424Z,14.72
2022-10-29T20:58:13.545Z,14.76
2022-10-29T21:01:21.510Z,14.77
2022-10-29T21:04:27.872Z,14.84
2022-10-29T21:07:33.857Z,14.79
2022-10-29T21:10:39.572Z,14.64
2022-10-29T21:13:46.538Z,14.41
2022-10-29T21:16:52.035Z,14.49
2022-10-29T21:19:57.920Z,14.57
2022-10-29T21:23:03.983Z,14.59
2022-10-29T21:26:13.614Z,14.40
2022-10-29T21:29:19.714Z,14.34
2022-10-29T21:32:26.014Z,14.48
2022-10-29T21:35:32.140Z,14.32
2022-10-29T21:38:38.267Z,14.23
2022-10-29T21:41:44.157Z,14.43
2022-10-29T21:44:49.995Z,14.23
2022-10-29T21:47:55.816Z,14.37
2022-10-29T21:51:12.904Z,14.22
2022-10-29T21:54:20.066Z,14.35
2022-10-29T21:57:28.116Z,14.34
2022-10-29T22:00:34.168Z,14.30
2022-10-29T22:03:42.102Z,14.35
2022-10-29T22:06:47.822Z,14.22
2022-10-29T22:09:54.244Z,14.22
2022-10-29T22:13:00.328Z,14.15
2022-10-29T22:16:07.593Z,14.06
2022-10-29T22:19:13.554Z,14.04
2022-10-29T22:22:19.563Z,13.75
2022-10-29T22:25:25.325Z,13.95
2022-10-29T22:28:30.768Z,13.96
2022-10-29T22:31:36.725Z,13.99
2022-10-29T22:34:42.331Z,13.93
2022-10-29T22:37:48.317Z,13.98
2022-10-29T22:40:54.174Z,13.88
2022-10-29T22:44:00.329Z,14.12
2022-10-29T22:47:06.107Z,14.15
2022-10-29T22:50:12.108Z,14.05
2022-10-29T22:53:17.759Z,13.93
2022-10-29T22:56:26.251Z,13.96
2022-10-29T22:59:32.205Z,13.84
2022-10-29T23:02:37.788Z,13.89
2022-10-29T23:05:43.947Z,13.98
2022-10-29T23:08:53.044Z,13.93
2022-10-29T23:11:58.789Z,13.90
2022-10-29T23:15:06.091Z,13.80
2022-10-29T23:18:12.209Z,13.79
2022-10-29T23:21:18.457Z,13.80
2022-10-29T23:24:24.447Z,13.75
2022-10-29T23:27:30.271Z,13.71
2022-10-29T23:30:35.994Z,13.74
2022-10-29T23:33:47.597Z,13.51
2022-10-29T23:40:04.403Z,13.55
2022-10-29T23:43:10.306Z,13.52
2022-10-29T23:46:16.399Z,13.51
2022-10-29T23:49:22.016Z,13.42
2022-10-29T23:52:27.943Z,13.27
2022-10-29T23:55:35.556Z,13.35
2022-10-29T23:58:41.445Z,13.39
